createdAt,value
2023-03-23T00:01:09.194Z,27.73
2023-03-23T00:05:09.114Z,27.72
2023-03-23T00:09:09.104Z,27.72
2023-03-23T00:13:09.082Z,27.73
2023-03-23T00:17:09.051Z,27.69
2023-03-23T00:21:08.973Z,27.70
2023-03-23T00:25:08.969Z,27.69
2023-03-23T00:29:09.120Z,27.69
2023-03-23T00:33:08.900Z,27.67
2023-03-23T00:37:08.885Z,27.69
2023-03-23T00:41:09.145Z,27.66
2023-03-23T00:45:09.149Z,27.64
2023-03-23T00:49:09.224Z,27.66
2023-03-23T00:53:09.331Z,27.64
2023-03-23T00:57:09.462Z,27.63
2023-03-23T01:01:09.590Z,27.64
2023-03-23T01:05:09.683Z,27.62
2023-03-23T01:09:09.772Z,27.60
2023-03-23T01:13:09.954Z,27.63
2023-03-23T01:17:10.071Z,27.62
2023-03-23T01:21:10.142Z,27.60
2023-03-23T01:25:10.259Z,27.60
2023-03-23T01:29:10.370Z,27.59
2023-03-23T01:33:10.501Z,27.57
2023-03-23T01:37:10.650Z,27.56
2023-03-23T01:41:10.760Z,27.59
2023-03-23T01:45:10.890Z,27.56
2023-03-23T01:49:11.126Z,27.54
2023-03-23T01:53:11.162Z,27.57
2023-03-23T01:57:11.298Z,27.54
2023-03-23T02:01:11.392Z,27.54
2023-03-23T02:05:11.544Z,27.54
2023-03-23T02:09:11.662Z,27.54
2023-03-23T02:13:12.743Z,27.52
2023-03-23T02:17:11.971Z,27.53
2023-03-23T02:21:12.096Z,27.52
2023-03-23T02:25:12.202Z,27.52
2023-03-23T02:29:12.419Z,27.52
2023-03-23T02:33:12.516Z,27.49
2023-03-23T02:37:12.658Z,27.48
2023-03-23T02:41:12.793Z,27.46
2023-03-23T02:45:12.959Z,27.48
2023-03-23T02:49:13.149Z,27.46
2023-03-23T02:53:13.249Z,27.45
2023-03-23T02:57:13.746Z,27.48
2023-03-23T03:01:13.555Z,27.45
2023-03-23T03:05:13.709Z,27.45
2023-03-23T03:09:13.938Z,27.45
2023-03-23T03:13:14.081Z,27.45
2023-03-23T03:17:14.250Z,27.41
2023-03-23T03:21:14.414Z,27.43
2023-03-23T03:25:18.138Z,27.41
2023-03-23T03:29:14.548Z,27.42
2023-03-23T03:33:14.504Z,27.41
2023-03-23T03:37:14.729Z,27.41
2023-03-23T03:41:14.444Z,27.42
2023-03-23T03:45:14.436Z,27.41
2023-03-23T03:49:14.422Z,27.42
2023-03-23T03:53:14.567Z,27.39
2023-03-23T03:57:14.870Z,27.39
2023-03-23T04:01:15.076Z,27.41
2023-03-23T04:05:15.133Z,27.39
2023-03-23T04:09:15.344Z,27.38
2023-03-23T04:13:15.501Z,27.39
2023-03-23T04:17:15.722Z,27.38
2023-03-23T04:21:15.938Z,27.36
2023-03-23T04:25:16.179Z,27.33
2023-03-23T04:29:16.130Z,27.38
2023-03-23T04:33:16.139Z,27.36
2023-03-23T04:37:17.237Z,27.32
2023-03-23T04:41:16.048Z,27.33
2023-03-23T04:45:16.227Z,27.32
2023-03-23T04:49:16.367Z,27.35
2023-03-23T04:53:16.356Z,27.33
2023-03-23T04:57:16.342Z,27.32
2023-03-23T05:01:16.303Z,27.33
2023-03-23T05:05:16.507Z,27.31
2023-03-23T05:09:16.674Z,27.28
2023-03-23T05:13:16.853Z,27.18
2023-03-23T05:17:17.071Z,27.14
2023-03-23T05:21:17.293Z,27.08
2023-03-23T05:25:17.256Z,27.05
2023-03-23T05:29:17.212Z,27.01
2023-03-23T05:33:17.142Z,27.05
2023-03-23T05:37:17.175Z,27.06
2023-03-23T05:41:17.092Z,27.14
2023-03-23T05:45:17.044Z,27.14
2023-03-23T05:49:17.022Z,27.18
2023-03-23T05:53:16.963Z,27.18
2023-03-23T05:57:17.273Z,27.19
2023-03-23T06:01:17.891Z,27.24
2023-03-23T06:05:16.961Z,27.24
2023-03-23T06:09:16.943Z,27.25
2023-03-23T06:13:16.938Z,27.25
2023-03-23T06:17:16.885Z,27.28
2023-03-23T06:21:16.854Z,27.29
2023-03-23T06:25:16.918Z,27.29
2023-03-23T06:29:16.804Z,27.28
2023-03-23T06:33:17.145Z,27.24
2023-03-23T06:37:16.952Z,27.21
2023-03-23T06:41:17.955Z,27.18
2023-03-23T06:45:16.877Z,27.22
2023-03-23T06:49:17.090Z,27.21
2023-03-23T06:53:17.346Z,27.33
2023-03-23T06:57:17.507Z,27.41
2023-03-23T07:01:17.805Z,27.46
2023-03-23T07:05:18.349Z,27.43
2023-03-23T07:09:17.894Z,27.46
2023-03-23T07:13:18.340Z,27.50
2023-03-23T07:17:17.811Z,27.54
2023-03-23T07:21:17.779Z,27.56
2023-03-23T07:25:17.735Z,27.52
2023-03-23T07:29:17.717Z,27.52
2023-03-23T07:33:17.689Z,27.59
2023-03-23T07:37:18.318Z,27.62
2023-03-23T07:41:17.597Z,27.59
2023-03-23T07:45:17.870Z,27.56
2023-03-23T07:49:18.569Z,27.54
2023-03-23T07:53:17.574Z,27.56
2023-03-23T07:57:17.719Z,27.63
2023-03-23T08:01:17.846Z,27.73
2023-03-23T08:05:18.112Z,27.80
2023-03-23T08:09:18.091Z,27.87
2023-03-23T08:13:18.138Z,27.96
2023-03-23T08:17:18.215Z,27.97
2023-03-23T08:21:18.279Z,28.01
2023-03-23T08:25:18.382Z,28.00
2023-03-23T08:29:18.456Z,27.99
2023-03-23T08:33:18.930Z,27.96
2023-03-23T08:37:19.446Z,27.72
2023-03-23T08:41:18.786Z,27.67
2023-03-23T08:45:18.949Z,27.64
2023-03-23T08:49:19.081Z,27.76
2023-03-23T08:53:19.382Z,27.79
2023-03-23T08:57:19.303Z,27.84
2023-03-23T09:01:20.576Z,27.89
2023-03-23T09:05:19.360Z,27.94
2023-03-23T09:09:19.450Z,27.93
2023-03-23T09:13:19.472Z,27.91
2023-03-23T09:17:19.444Z,27.93
2023-03-23T09:21:20.839Z,27.96
2023-03-23T09:25:19.438Z,27.91
2023-03-23T09:29:19.441Z,27.90
2023-03-23T09:33:19.847Z,27.94
2023-03-23T09:37:19.483Z,27.97
2023-03-23T09:41:19.445Z,27.94
2023-03-23T09:45:21.468Z,27.84
2023-03-23T09:49:19.549Z,27.87
2023-03-23T09:53:19.647Z,27.94
2023-03-23T09:57:20.473Z,28.05
2023-03-23T10:01:19.916Z,28.05
2023-03-23T10:05:20.076Z,28.10
2023-03-23T10:09:20.416Z,28.10
2023-03-23T10:13:20.432Z,28.17
2023-03-23T10:17:20.260Z,28.21
2023-03-23T10:21:20.225Z,28.24
2023-03-23T10:25:20.152Z,28.30
2023-03-23T10:29:20.165Z,28.34
2023-03-23T10:33:20.104Z,28.31
2023-03-23T10:37:20.455Z,28.30
2023-03-23T10:41:20.641Z,28.32
2023-03-23T10:45:20.494Z,28.30
2023-03-23T10:49:20.150Z,28.24
2023-03-23T10:53:20.081Z,28.22
2023-03-23T10:57:20.015Z,28.20
2023-03-23T11:01:19.908Z,28.15
2023-03-23T11:05:20.334Z,28.15
2023-03-23T11:09:19.810Z,28.17
2023-03-23T11:13:19.985Z,28.13
2023-03-23T11:17:19.848Z,28.13
2023-03-23T11:21:20.047Z,28.08
2023-03-23T11:25:19.847Z,28.03
2023-03-23T11:29:20.445Z,27.91
2023-03-23T11:33:19.956Z,27.83
2023-03-23T11:37:20.402Z,27.67
2023-03-23T11:41:20.223Z,27.63
2023-03-23T11:45:20.407Z,27.60
2023-03-23T11:49:25.760Z,27.62
2023-03-23T11:53:21.471Z,27.46
2023-03-23T11:57:20.427Z,27.45
2023-03-23T12:01:21.330Z,27.46
2023-03-23T12:05:20.587Z,27.46
2023-03-23T12:09:20.710Z,27.52
2023-03-23T12:13:21.197Z,27.48
2023-03-23T12:17:21.015Z,27.49
2023-03-23T12:21:21.555Z,27.48
2023-03-23T12:25:21.345Z,27.49
2023-03-23T12:29:21.524Z,27.50
2023-03-23T12:33:21.644Z,27.52
2023-03-23T12:37:21.762Z,27.54
2023-03-23T12:41:21.893Z,27.54
2023-03-23T12:45:22.149Z,27.64
2023-03-23T12:49:22.158Z,27.73
2023-03-23T12:53:22.452Z,27.82
2023-03-23T12:57:22.361Z,27.90
2023-03-23T13:01:22.345Z,27.97
2023-03-23T13:05:22.371Z,28.03
2023-03-23T13:09:22.254Z,28.10
2023-03-23T13:13:22.213Z,28.14
2023-03-23T13:17:22.210Z,28.17
2023-03-23T13:21:22.212Z,28.27
2023-03-23T13:25:22.176Z,28.32
2023-03-23T13:29:22.146Z,28.41
2023-03-23T13:33:22.036Z,28.51
2023-03-23T13:37:22.031Z,28.56
2023-03-23T13:41:22.054Z,28.62
2023-03-23T13:45:22.436Z,28.71
2023-03-23T13:49:21.919Z,28.75
2023-03-23T13:53:21.925Z,28.83
2023-03-23T13:57:22.851Z,28.88
2023-03-23T14:01:22.046Z,28.93
2023-03-23T14:05:22.433Z,28.93
2023-03-23T14:09:21.880Z,28.93
2023-03-23T14:13:22.080Z,28.88
2023-03-23T14:17:22.269Z,28.82
2023-03-23T14:21:22.488Z,28.73
2023-03-23T14:25:22.673Z,28.72
2023-03-23T14:29:22.900Z,28.71
2023-03-23T14:33:23.018Z,28.72
2023-03-23T14:37:23.195Z,28.72
2023-03-23T14:41:23.361Z,28.75
2023-03-23T14:45:23.520Z,28.76
2023-03-23T14:49:23.789Z,28.80
2023-03-23T14:53:23.913Z,28.85
2023-03-23T14:57:24.055Z,28.95
2023-03-23T15:01:24.244Z,29.07
2023-03-23T15:05:24.246Z,29.19
2023-03-23T15:09:24.331Z,29.30
2023-03-23T15:13:24.423Z,29.36
2023-03-23T15:17:24.479Z,29.29
2023-03-23T15:21:24.557Z,29.13
2023-03-23T15:25:24.470Z,29.09
2023-03-23T15:29:26.582Z,29.21
2023-03-23T15:33:24.576Z,29.38
2023-03-23T15:37:24.563Z,29.97
2023-03-23T15:41:24.491Z,30.94
2023-03-23T15:45:24.493Z,31.20
2023-03-23T15:49:24.540Z,30.95
2023-03-23T15:53:24.551Z,30.53
2023-03-23T15:57:24.544Z,30.05
2023-03-23T16:01:24.372Z,29.64
2023-03-23T16:05:24.356Z,29.40
2023-03-23T16:09:24.484Z,29.23
2023-03-23T16:13:24.466Z,29.11
2023-03-23T16:17:24.498Z,29.06
2023-03-23T16:21:24.629Z,28.98
2023-03-23T16:25:24.815Z,28.93
2023-03-23T16:29:46.755Z,28.89
2023-03-23T16:33:25.859Z,28.86
2023-03-23T16:37:24.814Z,28.82
2023-03-23T16:41:24.849Z,28.79
2023-03-23T16:45:25.167Z,28.76
2023-03-23T16:49:25.184Z,28.73
2023-03-23T16:53:25.422Z,28.71
2023-03-23T16:57:25.530Z,28.71
2023-03-23T17:01:25.808Z,28.66
2023-03-23T17:05:25.701Z,28.65
2023-03-23T17:09:25.661Z,28.62
2023-03-23T17:13:25.750Z,28.59
2023-03-23T17:17:25.695Z,28.59
2023-03-23T17:21:25.580Z,28.56
2023-03-23T17:25:25.619Z,28.54
2023-03-23T17:29:25.651Z,28.51
2023-03-23T17:33:25.500Z,28.51
2023-03-23T17:37:25.487Z,28.50
2023-03-23T17:41:25.457Z,28.50
2023-03-23T17:45:25.630Z,28.44
2023-03-23T17:49:25.636Z,28.44
2023-03-23T17:53:25.623Z,28.42
2023-03-23T17:57:25.665Z,28.41
2023-03-23T18:01:25.909Z,28.40
2023-03-23T18:05:25.710Z,28.37
2023-03-23T18:09:25.755Z,28.35
2023-03-23T18:13:25.654Z,28.32
2023-03-23T18:17:25.735Z,28.35
2023-03-23T18:21:25.646Z,28.32
2023-03-23T18:25:25.691Z,28.30
2023-03-23T18:29:26.377Z,28.28
2023-03-23T18:33:25.948Z,28.18
2023-03-23T18:37:25.987Z,28.11
2023-03-23T18:41:25.816Z,28.03
2023-03-23T18:45:26.071Z,28.00
2023-03-23T18:49:25.918Z,28.01
2023-03-23T18:53:26.132Z,27.94
2023-03-23T18:57:26.015Z,27.84
2023-03-23T19:01:26.110Z,27.82
2023-03-23T19:05:26.154Z,27.83
2023-03-23T19:09:26.710Z,27.89
2023-03-23T19:13:26.411Z,27.90
2023-03-23T19:17:26.805Z,27.93
2023-03-23T19:21:29.056Z,27.96
2023-03-23T19:25:26.875Z,27.99
2023-03-23T19:29:27.461Z,27.94
2023-03-23T19:33:26.614Z,27.97
2023-03-23T19:37:26.538Z,27.94
2023-03-23T19:41:27.662Z,27.96
2023-03-23T19:45:26.850Z,27.99
2023-03-23T19:49:26.768Z,27.96
2023-03-23T19:53:26.798Z,27.94
2023-03-23T19:57:27.146Z,27.94
2023-03-23T20:01:26.983Z,27.93
2023-03-23T20:05:27.325Z,27.93
2023-03-23T20:09:27.242Z,27.94
2023-03-23T20:13:27.651Z,27.93
2023-03-23T20:17:27.478Z,27.91
2023-03-23T20:21:27.601Z,27.90
2023-03-23T20:25:28.182Z,27.91
2023-03-23T20:29:31.363Z,27.90
2023-03-23T20:33:27.892Z,27.89
2023-03-23T20:37:28.263Z,27.89
2023-03-23T20:41:27.836Z,27.90
2023-03-23T20:45:27.769Z,27.89
2023-03-23T20:49:27.709Z,27.86
2023-03-23T20:53:27.728Z,27.84
2023-03-23T20:57:27.647Z,27.87
2023-03-23T21:01:27.959Z,27.84
2023-03-23T21:05:28.025Z,27.84
2023-03-23T21:09:28.139Z,27.84
2023-03-23T21:13:28.276Z,27.84
2023-03-23T21:17:28.455Z,27.84
2023-03-23T21:21:28.576Z,27.82
2023-03-23T21:25:34.251Z,27.82
2023-03-23T21:29:29.641Z,27.79
2023-03-23T21:33:28.610Z,27.82
2023-03-23T21:37:28.569Z,27.80
2023-03-23T21:41:28.652Z,27.82
2023-03-23T21:45:28.790Z,27.79
2023-03-23T21:49:28.946Z,27.80
2023-03-23T21:53:29.090Z,27.82
2023-03-23T21:57:29.689Z,27.80
2023-03-23T22:01:29.668Z,27.80
2023-03-23T22:05:29.484Z,27.80
2023-03-23T22:09:29.826Z,27.80
2023-03-23T22:13:29.833Z,27.77
2023-03-23T22:17:30.158Z,27.80
2023-03-23T22:21:30.182Z,27.82
2023-03-23T22:25:30.207Z,27.79
2023-03-23T22:29:30.337Z,27.76
2023-03-23T22:33:30.615Z,27.77
2023-03-23T22:37:30.699Z,27.79
2023-03-23T22:41:31.169Z,27.79
2023-03-23T22:45:30.914Z,27.77
2023-03-23T22:49:31.081Z,27.79
2023-03-23T22:53:31.266Z,27.76
2023-03-23T22:57:31.445Z,27.74
2023-03-23T23:01:31.459Z,27.76
2023-03-23T23:05:31.687Z,27.73
2023-03-23T23:09:31.770Z,27.73
2023-03-23T23:13:33.134Z,27.72
2023-03-23T23:17:32.174Z,27.70
2023-03-23T23:21:32.140Z,27.72
2023-03-23T23:25:32.262Z,27.70
2023-03-23T23:29:32.407Z,27.70
2023-03-23T23:33:32.594Z,27.70
2023-03-23T23:37:32.840Z,27.69
2023-03-23T23:41:32.853Z,27.66
2023-03-23T23:45:33.007Z,27.70
2023-03-23T23:49:33.349Z,27.70
2023-03-23T23:53:33.377Z,27.69
2023-03-23T23:57:33.612Z,27.69
